createdAt,value
2023-05-18T00:01:23.136Z,9.20
2023-05-18T00:04:10.028Z,9.10
2023-05-18T00:06:58.687Z,9.00
2023-05-18T00:09:46.600Z,9.10
2023-05-18T00:12:32.942Z,9.00
2023-05-18T00:15:19.576Z,8.90
2023-05-18T00:18:06.872Z,8.80
2023-05-18T00:20:58.997Z,8.70
2023-05-18T00:23:49.470Z,8.70
2023-05-18T00:26:37.651Z,8.70
2023-05-18T00:29:24.264Z,8.80
2023-05-18T00:32:10.875Z,8.70
2023-05-18T00:34:57.079Z,8.60
2023-05-18T00:37:43.724Z,8.60
2023-05-18T00:40:30.440Z,8.60
2023-05-18T00:43:18.536Z,8.60
2023-05-18T00:46:05.162Z,8.60
2023-05-18T00:48:52.837Z,8.50
2023-05-18T00:51:41.763Z,8.60
2023-05-18T00:54:28.712Z,8.60
2023-05-18T00:57:15.401Z,8.50
2023-05-18T01:00:05.139Z,8.60
2023-05-18T01:02:51.902Z,8.50
2023-05-18T01:05:38.821Z,8.40
2023-05-18T01:08:26.154Z,8.40
2023-05-18T01:11:17.304Z,8.40
2023-05-18T01:14:11.432Z,8.40
2023-05-18T01:17:07.402Z,8.40
2023-05-18T01:20:20.152Z,8.30
2023-05-18T01:23:30.793Z,8.30
2023-05-18T01:26:29.581Z,8.20
2023-05-18T01:29:18.717Z,8.20
2023-05-18T01:32:08.635Z,8.30
2023-05-18T01:34:56.171Z,8.20
2023-05-18T01:37:42.571Z,8.30
2023-05-18T01:40:34.193Z,8.20
2023-05-18T01:43:26.433Z,8.30
2023-05-18T01:46:22.243Z,8.20
2023-05-18T01:49:21.736Z,8.20
2023-05-18T01:52:13.191Z,8.10
2023-05-18T01:55:03.885Z,8.20
2023-05-18T01:57:52.624Z,8.20
2023-05-18T02:00:43.793Z,8.10
2023-05-18T02:03:32.476Z,8.10
2023-05-18T02:06:19.197Z,8.00
2023-05-18T02:09:06.143Z,7.90
2023-05-18T02:11:52.777Z,7.70
2023-05-18T02:14:39.362Z,7.80
2023-05-18T02:17:27.046Z,7.80
2023-05-18T02:20:13.774Z,7.80
2023-05-18T02:23:00.636Z,7.70
2023-05-18T02:25:46.805Z,7.80
2023-05-18T02:28:33.177Z,7.80
2023-05-18T02:31:19.441Z,7.80
2023-05-18T02:34:09.019Z,7.70
2023-05-18T02:36:58.027Z,7.70
2023-05-18T02:39:44.656Z,7.70
2023-05-18T02:42:31.877Z,7.70
2023-05-18T02:45:20.757Z,7.70
2023-05-18T02:48:07.540Z,7.80
2023-05-18T02:50:55.451Z,7.70
2023-05-18T02:53:44.255Z,7.80
2023-05-18T02:56:32.741Z,7.80
2023-05-18T02:59:19.482Z,7.80
2023-05-18T03:02:06.247Z,7.80
2023-05-18T03:04:54.230Z,7.70
2023-05-18T03:07:42.188Z,7.60
2023-05-18T03:10:28.487Z,7.60
2023-05-18T03:13:14.761Z,7.50
2023-05-18T03:16:01.453Z,7.50
2023-05-18T03:18:47.681Z,7.50
2023-05-18T03:21:35.928Z,7.60
2023-05-18T03:24:26.165Z,7.60
2023-05-18T03:27:16.423Z,7.70
2023-05-18T03:30:03.948Z,7.70
2023-05-18T03:32:50.753Z,7.70
2023-05-18T03:35:37.239Z,7.70
2023-05-18T03:38:23.699Z,7.70
2023-05-18T03:41:11.262Z,7.70
2023-05-18T03:43:57.679Z,7.70
2023-05-18T03:46:44.122Z,7.60
2023-05-18T03:49:30.900Z,7.60
2023-05-18T03:52:22.447Z,7.70
2023-05-18T03:55:09.525Z,7.70
2023-05-18T03:57:59.111Z,7.70
2023-05-18T04:00:45.605Z,7.80
2023-05-18T04:03:34.476Z,7.80
2023-05-18T04:06:23.615Z,7.90
2023-05-18T04:09:10.368Z,7.90
2023-05-18T04:11:56.691Z,7.90
2023-05-18T04:14:49.291Z,8.20
2023-05-18T04:17:36.053Z,8.30
2023-05-18T04:20:23.129Z,8.60
2023-05-18T04:23:10.566Z,8.70
2023-05-18T04:25:56.828Z,8.90
2023-05-18T04:28:43.509Z,9.20
2023-05-18T04:31:31.286Z,9.50
2023-05-18T04:34:19.073Z,9.80
2023-05-18T04:37:06.456Z,10.20
2023-05-18T04:39:54.047Z,10.30
2023-05-18T04:42:45.164Z,10.40
2023-05-18T04:45:32.021Z,10.50
2023-05-18T04:48:19.819Z,10.70
2023-05-18T04:51:06.652Z,10.70
2023-05-18T04:53:53.365Z,10.90
2023-05-18T04:56:39.923Z,11.10
2023-05-18T04:59:26.471Z,11.40
2023-05-18T05:02:12.888Z,11.70
2023-05-18T05:05:00.383Z,12.00
2023-05-18T05:07:46.672Z,12.20
2023-05-18T05:10:32.980Z,12.50
2023-05-18T05:13:19.243Z,12.70
2023-05-18T05:16:06.029Z,12.80
2023-05-18T05:21:41.520Z,13.40
2023-05-18T05:24:28.369Z,13.40
2023-05-18T05:27:14.684Z,13.60
2023-05-18T05:30:01.452Z,13.70
2023-05-18T05:32:48.233Z,14.30
2023-05-18T05:35:34.926Z,14.60
2023-05-18T05:38:23.279Z,14.90
2023-05-18T05:41:09.867Z,15.20
2023-05-18T05:43:56.894Z,15.10
2023-05-18T05:46:43.743Z,15.60
2023-05-18T05:49:30.103Z,15.70
2023-05-18T05:52:16.448Z,15.80
2023-05-18T05:55:04.232Z,16.20
2023-05-18T05:57:50.843Z,17.00
2023-05-18T06:00:37.232Z,17.70
2023-05-18T06:03:23.969Z,17.80
2023-05-18T06:06:10.632Z,18.30
2023-05-18T06:08:56.924Z,18.00
2023-05-18T06:11:44.564Z,17.80
2023-05-18T06:14:30.853Z,17.60
2023-05-18T06:17:17.258Z,17.80
2023-05-18T06:20:04.358Z,17.80
2023-05-18T06:22:50.886Z,17.80
2023-05-18T06:25:37.456Z,17.60
2023-05-18T06:28:25.097Z,17.70
2023-05-18T06:31:12.848Z,17.60
2023-05-18T06:33:59.463Z,18.50
2023-05-18T06:36:46.454Z,18.80
2023-05-18T06:39:32.947Z,19.20
2023-05-18T06:42:19.499Z,19.30
2023-05-18T06:45:11.934Z,18.90
2023-05-18T06:47:58.502Z,17.90
2023-05-18T06:50:45.115Z,17.70
2023-05-18T06:53:32.676Z,18.10
2023-05-18T06:56:20.154Z,18.30
2023-05-18T06:59:06.358Z,18.80
2023-05-18T07:01:54.089Z,19.50
2023-05-18T07:04:40.538Z,19.30
2023-05-18T07:07:26.891Z,19.10
2023-05-18T07:10:13.255Z,18.90
2023-05-18T07:12:59.561Z,19.20
2023-05-18T07:15:45.734Z,19.00
2023-05-18T07:18:34.000Z,19.00
2023-05-18T07:21:20.809Z,18.80
2023-05-18T07:24:07.554Z,19.00
2023-05-18T07:26:54.095Z,18.80
2023-05-18T07:29:40.691Z,18.70
2023-05-18T07:32:26.993Z,17.80
2023-05-18T07:35:16.710Z,18.40
2023-05-18T07:38:03.343Z,18.60
2023-05-18T07:40:49.722Z,18.90
2023-05-18T07:43:36.423Z,18.90
2023-05-18T07:46:22.803Z,19.00
2023-05-18T07:49:09.630Z,18.80
2023-05-18T07:51:57.428Z,18.50
2023-05-18T07:54:43.664Z,18.90
2023-05-18T07:57:30.974Z,18.90
2023-05-18T08:00:19.225Z,18.50
2023-05-18T08:03:06.857Z,17.60
2023-05-18T08:05:53.305Z,17.90
2023-05-18T08:08:40.941Z,18.10
2023-05-18T08:11:27.491Z,18.00
2023-05-18T08:14:14.080Z,18.20
2023-05-18T08:17:00.930Z,18.60
2023-05-18T08:19:47.901Z,18.60
2023-05-18T08:22:34.155Z,18.70
2023-05-18T08:25:21.977Z,18.50
2023-05-18T08:28:08.335Z,18.40
2023-05-18T08:30:54.571Z,18.30
2023-05-18T08:33:41.819Z,18.80
2023-05-18T08:36:28.173Z,18.80
2023-05-18T08:39:14.552Z,18.80
2023-05-18T08:42:08.725Z,18.60
2023-05-18T08:45:03.555Z,18.50
2023-05-18T08:47:51.386Z,18.60
2023-05-18T08:50:41.788Z,18.70
2023-05-18T08:53:28.575Z,18.40
2023-05-18T08:56:16.270Z,17.90
2023-05-18T08:59:07.769Z,17.40
2023-05-18T09:01:55.226Z,17.00
2023-05-18T09:04:44.746Z,16.60
2023-05-18T09:07:32.556Z,17.00
2023-05-18T09:10:20.056Z,17.50
2023-05-18T09:13:07.454Z,18.10
2023-05-18T09:15:55.485Z,18.40
2023-05-18T09:18:41.946Z,17.60
2023-05-18T09:21:28.283Z,17.70
2023-05-18T09:24:15.404Z,18.00
2023-05-18T09:27:02.138Z,18.00
2023-05-18T09:29:55.778Z,18.00
2023-05-18T09:32:43.825Z,17.80
2023-05-18T09:35:32.920Z,17.70
2023-05-18T09:38:23.187Z,17.40
2023-05-18T09:41:12.582Z,17.00
2023-05-18T09:43:58.987Z,17.00
2023-05-18T09:46:45.557Z,16.90
2023-05-18T09:49:33.555Z,16.80
2023-05-18T09:52:20.110Z,16.90
2023-05-18T09:55:07.517Z,16.50
2023-05-18T09:57:54.091Z,16.10
2023-05-18T10:00:43.676Z,16.10
2023-05-18T10:03:36.797Z,16.20
2023-05-18T10:06:28.372Z,16.50
2023-05-18T10:09:17.826Z,17.20
2023-05-18T10:12:04.433Z,17.70
2023-05-18T10:14:51.183Z,18.30
2023-05-18T10:17:40.069Z,18.40
2023-05-18T10:20:27.491Z,18.60
2023-05-18T10:23:15.825Z,19.10
2023-05-18T10:26:06.430Z,19.50
2023-05-18T10:28:56.662Z,19.20
2023-05-18T10:31:43.622Z,18.30
2023-05-18T10:34:30.514Z,17.60
2023-05-18T10:37:18.320Z,17.40
2023-05-18T10:40:09.394Z,17.70
2023-05-18T10:42:58.373Z,17.40
2023-05-18T10:45:48.595Z,17.20
2023-05-18T10:48:40.416Z,17.10
2023-05-18T10:51:30.734Z,16.80
2023-05-18T10:54:17.106Z,16.10
2023-05-18T10:57:05.183Z,15.80
2023-05-18T10:59:51.883Z,15.80
2023-05-18T11:02:40.241Z,16.00
2023-05-18T11:05:27.487Z,16.20
2023-05-18T11:08:15.098Z,16.50
2023-05-18T11:11:07.601Z,16.80
2023-05-18T11:13:55.713Z,16.80
2023-05-18T11:16:43.395Z,16.70
2023-05-18T11:19:32.153Z,16.80
2023-05-18T11:22:19.641Z,16.90
2023-05-18T11:25:09.636Z,16.60
2023-05-18T11:28:01.776Z,16.10
2023-05-18T11:30:51.505Z,16.30
2023-05-18T11:33:43.080Z,16.50
2023-05-18T11:36:30.030Z,16.40
2023-05-18T11:39:24.820Z,15.90
2023-05-18T11:42:14.358Z,15.70
2023-05-18T11:45:07.574Z,15.50
2023-05-18T11:47:58.099Z,15.60
2023-05-18T11:50:48.092Z,15.70
2023-05-18T11:53:36.144Z,15.80
2023-05-18T11:56:22.888Z,15.90
2023-05-18T11:59:12.876Z,16.00
2023-05-18T12:02:01.524Z,16.10
2023-05-18T12:04:51.680Z,16.10
2023-05-18T12:07:39.093Z,16.10
2023-05-18T12:10:26.761Z,16.10
2023-05-18T12:13:14.046Z,16.00
2023-05-18T12:16:01.678Z,16.10
2023-05-18T12:18:50.557Z,16.00
2023-05-18T12:21:40.583Z,16.10
2023-05-18T12:24:27.144Z,16.20
2023-05-18T12:27:14.045Z,16.30
2023-05-18T12:30:00.268Z,16.40
2023-05-18T12:32:48.368Z,16.30
2023-05-18T12:35:35.297Z,16.10
2023-05-18T12:38:27.801Z,16.20
2023-05-18T12:41:23.195Z,16.20
2023-05-18T12:44:09.741Z,16.20
2023-05-18T12:46:57.119Z,16.40
2023-05-18T12:49:49.384Z,16.60
2023-05-18T12:52:35.760Z,16.50
2023-05-18T12:55:25.196Z,16.80
2023-05-18T12:58:16.915Z,16.80
2023-05-18T13:01:08.643Z,16.60
2023-05-18T13:03:59.231Z,16.50
2023-05-18T13:06:45.767Z,16.60
2023-05-18T13:09:32.206Z,16.80
2023-05-18T13:12:19.739Z,17.00
2023-05-18T13:15:13.916Z,16.90
2023-05-18T13:18:02.952Z,16.80
2023-05-18T13:20:52.270Z,16.90
2023-05-18T13:23:39.233Z,17.00
2023-05-18T13:26:26.387Z,17.10
2023-05-18T13:29:14.092Z,17.20
2023-05-18T13:32:00.612Z,17.30
2023-05-18T13:34:46.979Z,17.40
2023-05-18T13:37:33.346Z,17.40
2023-05-18T13:40:21.156Z,17.30
2023-05-18T13:43:12.828Z,17.20
2023-05-18T13:46:02.000Z,17.10
2023-05-18T13:48:48.717Z,17.30
2023-05-18T13:51:35.150Z,17.70
2023-05-18T13:54:21.683Z,17.70
2023-05-18T13:57:08.822Z,17.70
2023-05-18T13:59:55.443Z,17.30
2023-05-18T14:02:43.675Z,16.90
2023-05-18T14:05:30.405Z,16.80
2023-05-18T14:08:16.997Z,16.40
2023-05-18T14:11:03.334Z,16.60
2023-05-18T14:13:50.300Z,16.70
2023-05-18T14:16:37.725Z,16.80
2023-05-18T14:19:25.831Z,16.80
2023-05-18T14:22:13.495Z,16.60
2023-05-18T14:25:00.779Z,16.50
2023-05-18T14:27:47.095Z,16.80
2023-05-18T14:30:33.532Z,16.80
2023-05-18T14:33:19.982Z,16.90
2023-05-18T14:36:07.936Z,17.10
2023-05-18T14:38:54.196Z,16.90
2023-05-18T14:41:40.422Z,16.80
2023-05-18T14:44:27.082Z,16.60
2023-05-18T14:47:13.346Z,16.40
2023-05-18T14:49:59.716Z,16.50
2023-05-18T14:52:47.225Z,16.50
2023-05-18T14:55:33.810Z,16.40
2023-05-18T14:58:20.784Z,16.50
2023-05-18T15:01:07.174Z,16.40
2023-05-18T15:03:53.611Z,16.30
2023-05-18T15:06:40.645Z,16.30
2023-05-18T15:09:28.150Z,16.20
2023-05-18T15:12:16.986Z,16.30
2023-05-18T15:15:03.570Z,16.40
2023-05-18T15:17:50.107Z,16.50
2023-05-18T15:20:38.099Z,16.80
2023-05-18T15:23:26.225Z,16.70
2023-05-18T15:26:14.019Z,16.50
2023-05-18T15:29:00.509Z,16.50
2023-05-18T15:31:47.607Z,16.60
2023-05-18T15:34:35.162Z,16.40
2023-05-18T15:37:21.601Z,16.30
2023-05-18T15:40:09.243Z,16.00
2023-05-18T15:42:57.090Z,16.00
2023-05-18T15:45:43.506Z,15.90
2023-05-18T15:48:30.614Z,16.00
2023-05-18T15:51:17.175Z,16.10
2023-05-18T15:54:03.604Z,16.00
2023-05-18T15:56:50.583Z,15.90
2023-05-18T15:59:38.063Z,15.80
2023-05-18T16:02:25.915Z,15.90
2023-05-18T16:05:12.784Z,15.90
2023-05-18T16:07:59.608Z,15.90
2023-05-18T16:10:46.077Z,15.90
2023-05-18T16:13:32.927Z,15.90
2023-05-18T16:16:21.019Z,16.10
2023-05-18T16:19:07.888Z,16.00
2023-05-18T16:21:54.188Z,16.00
2023-05-18T16:24:40.999Z,16.00
2023-05-18T16:27:27.780Z,16.00
2023-05-18T16:30:14.392Z,16.00
2023-05-18T16:33:02.299Z,16.10
2023-05-18T16:35:48.926Z,16.10
2023-05-18T16:38:37.365Z,16.10
2023-05-18T16:41:24.223Z,16.10
2023-05-18T16:44:10.737Z,16.10
2023-05-18T16:46:57.168Z,16.10
2023-05-18T16:49:45.490Z,16.10
2023-05-18T16:52:32.196Z,16.00
2023-05-18T16:55:18.587Z,15.90
2023-05-18T16:58:05.273Z,15.70
2023-05-18T17:00:51.897Z,15.60
2023-05-18T17:03:38.285Z,15.60
2023-05-18T17:06:27.074Z,15.60
2023-05-18T17:09:13.602Z,15.60
2023-05-18T17:11:59.970Z,15.60
2023-05-18T17:14:46.434Z,15.60
2023-05-18T17:17:32.879Z,15.80
2023-05-18T17:20:19.651Z,15.80
2023-05-18T17:23:07.356Z,15.80
2023-05-18T17:26:01.010Z,15.90
2023-05-18T17:28:52.917Z,15.90
2023-05-18T17:31:39.381Z,15.90
2023-05-18T17:34:26.839Z,15.80
2023-05-18T17:37:13.938Z,15.90
2023-05-18T17:40:01.524Z,15.80
2023-05-18T17:42:47.765Z,15.80
2023-05-18T17:45:34.240Z,15.70
2023-05-18T17:48:20.616Z,15.80
2023-05-18T17:51:07.406Z,15.80
2023-05-18T17:53:56.290Z,15.90
2023-05-18T17:56:43.952Z,15.80
2023-05-18T17:59:30.902Z,15.80
2023-05-18T18:02:17.538Z,15.70
2023-05-18T18:05:04.075Z,15.60
2023-05-18T18:07:50.803Z,15.50
2023-05-18T18:10:37.351Z,15.40
2023-05-18T18:13:24.891Z,15.20
2023-05-18T18:16:11.351Z,15.20
2023-05-18T18:18:58.280Z,15.10
2023-05-18T18:21:44.813Z,15.00
2023-05-18T18:24:31.241Z,14.90
2023-05-18T18:27:19.378Z,14.80
2023-05-18T18:30:08.700Z,14.80
2023-05-18T18:32:55.524Z,14.50
2023-05-18T18:35:43.107Z,14.50
2023-05-18T18:38:29.622Z,14.40
2023-05-18T18:41:17.277Z,14.30
2023-05-18T18:44:04.112Z,14.40
2023-05-18T18:46:51.928Z,14.20
2023-05-18T18:49:38.762Z,14.20
2023-05-18T18:52:25.404Z,14.10
2023-05-18T18:55:11.826Z,14.00
2023-05-18T18:57:59.476Z,14.00
2023-05-18T19:00:45.878Z,13.90
2023-05-18T19:03:34.315Z,13.90
2023-05-18T19:06:22.712Z,13.80
2023-05-18T19:09:09.157Z,13.80
2023-05-18T19:11:55.675Z,13.80
2023-05-18T19:14:41.827Z,13.70
2023-05-18T19:17:28.878Z,13.60
2023-05-18T19:20:16.486Z,13.50
2023-05-18T19:23:04.670Z,13.50
2023-05-18T19:25:51.159Z,13.50
2023-05-18T19:28:37.482Z,13.50
2023-05-18T19:31:23.818Z,13.50
2023-05-18T19:34:10.286Z,13.30
2023-05-18T19:36:57.985Z,13.40
2023-05-18T19:39:44.694Z,13.30
2023-05-18T19:42:31.260Z,13.30
2023-05-18T19:45:18.100Z,13.20
2023-05-18T19:48:04.575Z,13.20
2023-05-18T19:50:51.175Z,13.20
2023-05-18T19:53:39.100Z,13.20
2023-05-18T19:56:25.318Z,13.20
2023-05-18T19:59:11.734Z,13.20
2023-05-18T20:01:59.291Z,13.20
2023-05-18T20:04:46.227Z,13.20
2023-05-18T20:07:34.141Z,13.20
2023-05-18T20:10:22.020Z,13.20
2023-05-18T20:13:08.507Z,13.20
2023-05-18T20:15:54.991Z,13.20
2023-05-18T20:18:41.812Z,13.20
2023-05-18T20:21:28.162Z,13.20
2023-05-18T20:24:14.712Z,13.20
2023-05-18T20:27:02.490Z,13.20
2023-05-18T20:29:48.910Z,13.10
2023-05-18T20:32:35.278Z,13.10
2023-05-18T20:35:22.208Z,13.10
2023-05-18T20:38:09.593Z,13.00
2023-05-18T20:40:57.823Z,13.10
2023-05-18T20:43:46.191Z,13.00
2023-05-18T20:46:33.840Z,13.00
2023-05-18T20:49:21.598Z,13.00
2023-05-18T20:52:10.044Z,13.00
2023-05-18T20:54:57.104Z,13.10
2023-05-18T20:57:44.905Z,13.00
2023-05-18T21:00:33.047Z,13.00
2023-05-18T21:03:19.986Z,12.90
2023-05-18T21:06:06.711Z,13.00
2023-05-18T21:08:53.353Z,13.00
2023-05-18T21:11:39.418Z,13.00
2023-05-18T21:14:25.966Z,12.90
2023-05-18T21:17:15.248Z,13.00
2023-05-18T21:20:01.936Z,13.00
2023-05-18T21:22:48.017Z,13.00
2023-05-18T21:25:34.734Z,12.90
2023-05-18T21:28:21.658Z,13.00
2023-05-18T21:31:08.193Z,13.00
2023-05-18T21:33:55.867Z,13.00
2023-05-18T21:36:42.215Z,12.90
2023-05-18T21:39:28.436Z,12.90
2023-05-18T21:42:15.067Z,12.90
2023-05-18T21:45:01.723Z,12.80
2023-05-18T21:47:50.104Z,12.70
2023-05-18T21:50:37.730Z,12.70
2023-05-18T21:53:24.900Z,12.60
2023-05-18T21:56:11.139Z,12.70
2023-05-18T21:58:57.768Z,12.50
2023-05-18T22:01:44.584Z,12.50
2023-05-18T22:04:31.049Z,12.50
2023-05-18T22:07:19.021Z,12.50
2023-05-18T22:10:06.289Z,12.50
2023-05-18T22:12:52.836Z,12.50
2023-05-18T22:15:40.274Z,12.40
2023-05-18T22:18:27.313Z,12.30
2023-05-18T22:21:13.658Z,12.30
2023-05-18T22:24:01.260Z,12.30
2023-05-18T22:26:47.956Z,12.30
2023-05-18T22:29:34.469Z,12.30
2023-05-18T22:32:22.329Z,12.30
2023-05-18T22:35:10.601Z,12.30
2023-05-18T22:37:57.419Z,12.30
2023-05-18T22:40:46.155Z,12.20
2023-05-18T22:43:32.585Z,12.20
2023-05-18T22:46:20.280Z,12.20
2023-05-18T22:49:07.318Z,12.20
2023-05-18T22:51:53.737Z,12.20
2023-05-18T22:54:40.365Z,12.10
2023-05-18T22:57:28.859Z,12.20
2023-05-18T23:00:16.524Z,12.20
2023-05-18T23:03:03.225Z,12.20
2023-05-18T23:05:49.801Z,12.10
2023-05-18T23:08:36.825Z,12.10
2023-05-18T23:11:23.086Z,12.10
2023-05-18T23:14:11.042Z,12.10
2023-05-18T23:16:58.305Z,12.10
2023-05-18T23:19:44.936Z,12.10
2023-05-18T23:22:31.614Z,12.10
2023-05-18T23:25:18.193Z,12.10
2023-05-18T23:28:04.965Z,12.10
2023-05-18T23:30:52.699Z,12.00
2023-05-18T23:33:40.078Z,12.00
2023-05-18T23:36:30.338Z,12.10
2023-05-18T23:39:16.839Z,12.10
2023-05-18T23:42:04.607Z,12.00
2023-05-18T23:44:51.984Z,12.00
2023-05-18T23:47:40.355Z,12.00
2023-05-18T23:50:27.547Z,12.00
2023-05-18T23:53:18.331Z,12.00
2023-05-18T23:56:06.453Z,12.10
2023-05-18T23:58:53.697Z,12.00
